Thunderstorms From: 15-12-2017 06:00 Until: 16-12-2017 06:00 warning for: Thunderstorms Level: Yellow info button

Although rather usual in this region, locally or potentially dangerous phenomena are expected. (such as local winds, summer thunderstorms, rising streams or high waves) Be aware and pay attention to the latest weather updates, especially if you carry out activities exposed to weather or close to a stream or shoreline. 


Meteo18 Weather Cam more information Meteo18 Weather Cam


warning for Thunderstorms more information blitzortung!


Rain radar more information rain snow radar


Visit our other weather sites:

Template documentation
and downloads

And another site



Weather Underground History page Text

Daily Summary for October 10, 2017 Units:  Both    English   Metric
« Previous Day
Next Day »
Daily Weekly Monthly Yearly Custom
  High: Low: Average:
Temperature: 63.9 °F /  17.7 °C 48.7 °F /  9.3 °C 55.9 °F /  13.3 °C
Dew Point: 57.6 °F /  14.2 °C 47.7 °F /  8.7 °C 53.1 °F /  11.7 °C
Humidity: 98 % 77 % 90 %
Wind Speed: 11 mph /  17.7 km/h - 1.9 mph /  3.1 km/h
Wind Gust: 15 mph /  24.1 km/h - -
Wind:- - WSW
Pressure: 30.2 in /  1022.6 hPa 30.2 in /  1020.9 hPa -
Precipitation: 0.01 in /  0.3 mm    
Historical Graphs
 
 
Tabular Data for October 10, 2017
Time Temperature Dew Point Pressure Wind Wind Speed Wind Gust Humidity Rainfall Rate (Hourly)
00:07 53.4 °F /  11.9 °C 51.8 °F /  11.0 °C 30.2 in /  1021.9 hPa Calm     94 % 0 in /  0.0 mm
00:12 53.4 °F /  11.9 °C 51.8 °F /  11.0 °C 30.2 in /  1022.2 hPa Calm   1 mph /  1.6 km/h 94 % 0 in /  0.0 mm
00:22 53.1 °F /  11.7 °C 51.4 °F /  10.8 °C 30.2 in /  1022.2 hPa Calm     94 % 0 in /  0.0 mm
00:32 52.9 °F /  11.6 °C 51.3 °F /  10.7 °C 30.2 in /  1021.9 hPa Calm     94 % 0 in /  0.0 mm
00:42 52.3 °F /  11.3 °C 50.7 °F /  10.4 °C 30.2 in /  1021.9 hPa Calm     94 % 0 in /  0.0 mm
00:52 52 °F /  11.1 °C 50.5 °F /  10.3 °C 30.2 in /  1021.9 hPa Calm   1 mph /  1.6 km/h 95 % 0 in /  0.0 mm
00:57 51.6 °F /  10.9 °C 50 °F /  10.0 °C 30.2 in /  1021.9 hPa Calm   1 mph /  1.6 km/h 94 % 0 in /  0.0 mm
01:02 51.4 °F /  10.8 °C 50 °F /  10.0 °C 30.2 in /  1021.9 hPa Calm     95 % 0 in /  0.0 mm
01:07 51.3 °F /  10.7 °C 49.8 °F /  9.9 °C 30.2 in /  1021.9 hPa Calm     95 % 0 in /  0.0 mm
01:17 51.1 °F /  10.6 °C 49.6 °F /  9.8 °C 30.2 in /  1021.9 hPa Calm     95 % 0 in /  0.0 mm
01:22 51.1 °F /  10.6 °C 49.6 °F /  9.8 °C 30.2 in /  1021.9 hPa Calm     95 % 0 in /  0.0 mm
01:32 50.5 °F /  10.3 °C 49.1 °F /  9.5 °C 30.2 in /  1021.9 hPa Calm     95 % 0 in /  0.0 mm
01:37 50.2 °F /  10.1 °C 48.7 °F /  9.3 °C 30.2 in /  1021.9 hPa Calm     95 % 0 in /  0.0 mm
01:42 50.2 °F /  10.1 °C 49.1 °F /  9.5 °C 30.2 in /  1021.9 hPa Calm     96 % 0 in /  0.0 mm
01:47 50.4 °F /  10.2 °C 49.3 °F /  9.6 °C 30.2 in /  1021.9 hPa Calm     96 % 0 in /  0.0 mm
01:52 50.4 °F /  10.2 °C 49.3 °F /  9.6 °C 30.2 in /  1021.6 hPa Calm     96 % 0 in /  0.0 mm
01:57 50.5 °F /  10.3 °C 49.5 °F /  9.7 °C 30.2 in /  1021.6 hPa Calm     96 % 0 in /  0.0 mm
02:02 50.4 °F /  10.2 °C 49.3 °F /  9.6 °C 30.2 in /  1021.9 hPa Calm     96 % 0 in /  0.0 mm
02:07 50.2 °F /  10.1 °C 49.1 °F /  9.5 °C 30.2 in /  1021.6 hPa Calm     96 % 0 in /  0.0 mm
02:12 50 °F /  10.0 °C 48.9 °F /  9.4 °C 30.2 in /  1021.6 hPa Calm     96 % 0 in /  0.0 mm
02:22 49.6 °F /  9.8 °C 48.6 °F /  9.2 °C 30.2 in /  1021.6 hPa Calm     96 % 0 in /  0.0 mm
02:27 49.8 °F /  9.9 °C 48.7 °F /  9.3 °C 30.2 in /  1021.6 hPa Calm     96 % 0 in /  0.0 mm
02:32 50 °F /  10.0 °C 48.9 °F /  9.4 °C 30.2 in /  1021.6 hPa Calm     96 % 0 in /  0.0 mm
02:37 50.2 °F /  10.1 °C 49.1 °F /  9.5 °C 30.2 in /  1021.6 hPa Calm     96 % 0 in /  0.0 mm
02:42 50.4 °F /  10.2 °C 49.3 °F /  9.6 °C 30.2 in /  1021.6 hPa Calm     96 % 0 in /  0.0 mm
02:47 50.4 °F /  10.2 °C 49.3 °F /  9.6 °C 30.2 in /  1021.6 hPa Calm     96 % 0 in /  0.0 mm
02:52 50.2 °F /  10.1 °C 49.1 °F /  9.5 °C 30.2 in /  1021.6 hPa Calm     96 % 0 in /  0.0 mm
02:57 49.6 °F /  9.8 °C 48.6 °F /  9.2 °C 30.2 in /  1021.6 hPa Calm     96 % 0 in /  0.0 mm
03:02 49.5 °F /  9.7 °C 48.4 °F /  9.1 °C 30.2 in /  1021.6 hPa Calm     96 % 0 in /  0.0 mm
03:07 49.3 °F /  9.6 °C 48.2 °F /  9.0 °C 30.2 in /  1021.6 hPa Calm     96 % 0 in /  0.0 mm
03:12 49.3 °F /  9.6 °C 48.2 °F /  9.0 °C 30.2 in /  1021.6 hPa Calm     96 % 0 in /  0.0 mm
03:17 48.9 °F /  9.4 °C 47.8 °F /  8.8 °C 30.2 in /  1021.6 hPa Calm     96 % 0 in /  0.0 mm
03:22 49.1 °F /  9.5 °C 48.2 °F /  9.0 °C 30.2 in /  1021.6 hPa Calm     97 % 0 in /  0.0 mm
03:27 49.3 °F /  9.6 °C 48.4 °F /  9.1 °C 30.2 in /  1021.6 hPa Calm     97 % 0 in /  0.0 mm
03:32 49.1 °F /  9.5 °C 48 °F /  8.9 °C 30.2 in /  1021.6 hPa Calm     96 % 0 in /  0.0 mm
03:37 48.9 °F /  9.4 °C 47.8 °F /  8.8 °C 30.2 in /  1021.6 hPa Calm     96 % 0 in /  0.0 mm
03:42 49.1 °F /  9.5 °C 48.2 °F /  9.0 °C 30.2 in /  1021.6 hPa Calm     97 % 0 in /  0.0 mm
03:47 49.1 °F /  9.5 °C 48.2 °F /  9.0 °C 30.2 in /  1021.6 hPa Calm     97 % 0 in /  0.0 mm
03:52 48.9 °F /  9.4 °C 47.8 °F /  8.8 °C 30.2 in /  1021.6 hPa Calm     96 % 0 in /  0.0 mm
04:02 48.7 °F /  9.3 °C 47.7 °F /  8.7 °C 30.2 in /  1021.6 hPa Calm     96 % 0 in /  0.0 mm
04:07 48.9 °F /  9.4 °C 48 °F /  8.9 °C 30.2 in /  1021.6 hPa Calm     97 % 0 in /  0.0 mm
04:12 49.1 °F /  9.5 °C 48.2 °F /  9.0 °C 30.2 in /  1021.6 hPa Calm     97 % 0 in /  0.0 mm
04:22 49.3 °F /  9.6 °C 48.4 °F /  9.1 °C 30.2 in /  1021.6 hPa Calm   1 mph /  1.6 km/h 97 % 0 in /  0.0 mm
04:32 49.3 °F /  9.6 °C 48.4 °F /  9.1 °C 30.2 in /  1021.2 hPa Calm     97 % 0 in /  0.0 mm
04:37 49.6 °F /  9.8 °C 48.7 °F /  9.3 °C 30.2 in /  1021.2 hPa Calm     97 % 0 in /  0.0 mm
04:42 49.6 °F /  9.8 °C 48.7 °F /  9.3 °C 30.2 in /  1021.2 hPa Calm     97 % 0 in /  0.0 mm
04:47 49.5 °F /  9.7 °C 48.6 °F /  9.2 °C 30.2 in /  1021.2 hPa Calm   1 mph /  1.6 km/h 97 % 0 in /  0.0 mm
04:52 49.5 °F /  9.7 °C 48.6 °F /  9.2 °C 30.2 in /  1021.2 hPa Calm   1 mph /  1.6 km/h 97 % 0 in /  0.0 mm
04:57 49.3 °F /  9.6 °C 48.2 °F /  9.0 °C 30.2 in /  1021.2 hPa Calm   1 mph /  1.6 km/h 96 % 0 in /  0.0 mm
05:02 48.9 °F /  9.4 °C 47.8 °F /  8.8 °C 30.2 in /  1021.2 hPa Calm   1 mph /  1.6 km/h 96 % 0 in /  0.0 mm
05:12 49.3 °F /  9.6 °C 48.4 °F /  9.1 °C 30.2 in /  1021.2 hPa Calm     97 % 0 in /  0.0 mm
05:22 49.3 °F /  9.6 °C 48.4 °F /  9.1 °C 30.2 in /  1021.2 hPa Calm     97 % 0 in /  0.0 mm
05:32 49.3 °F /  9.6 °C 48.4 °F /  9.1 °C 30.2 in /  1021.2 hPa Calm     97 % 0 in /  0.0 mm
05:37 49.3 °F /  9.6 °C 48.4 °F /  9.1 °C 30.2 in /  1021.2 hPa Calm     97 % 0 in /  0.0 mm
05:42 49.1 °F /  9.5 °C 48.2 °F /  9.0 °C 30.2 in /  1021.2 hPa Calm   1 mph /  1.6 km/h 97 % 0 in /  0.0 mm
05:52 48.9 °F /  9.4 °C 48 °F /  8.9 °C 30.2 in /  1021.2 hPa Calm   1 mph /  1.6 km/h 97 % 0 in /  0.0 mm
05:57 48.9 °F /  9.4 °C 48 °F /  8.9 °C 30.2 in /  1021.2 hPa Calm     97 % 0 in /  0.0 mm
06:02 48.9 °F /  9.4 °C 48 °F /  8.9 °C 30.2 in /  1021.2 hPa Calm     97 % 0 in /  0.0 mm
06:12 48.9 °F /  9.4 °C 48 °F /  8.9 °C 30.2 in /  1021.2 hPa Calm     97 % 0 in /  0.0 mm
06:17 49.1 °F /  9.5 °C 48.2 °F /  9.0 °C 30.2 in /  1021.2 hPa Calm     97 % 0 in /  0.0 mm
06:22 49.3 °F /  9.6 °C 48.4 °F /  9.1 °C 30.2 in /  1021.2 hPa Calm     97 % 0 in /  0.0 mm
06:32 49.6 °F /  9.8 °C 48.7 °F /  9.3 °C 30.2 in /  1021.2 hPa Calm     97 % 0 in /  0.0 mm
06:37 49.6 °F /  9.8 °C 48.7 °F /  9.3 °C 30.2 in /  1020.9 hPa Calm     97 % 0 in /  0.0 mm
06:42 49.6 °F /  9.8 °C 48.7 °F /  9.3 °C 30.2 in /  1021.2 hPa Calm     97 % 0 in /  0.0 mm
06:47 49.6 °F /  9.8 °C 48.7 °F /  9.3 °C 30.2 in /  1020.9 hPa Calm     97 % 0 in /  0.0 mm
06:52 49.8 °F /  9.9 °C 48.9 °F /  9.4 °C 30.2 in /  1021.2 hPa Calm     97 % 0 in /  0.0 mm
07:02 49.8 °F /  9.9 °C 48.9 °F /  9.4 °C 30.2 in /  1021.2 hPa Calm     97 % 0 in /  0.0 mm
07:12 50.4 °F /  10.2 °C 49.5 °F /  9.7 °C 30.2 in /  1021.2 hPa Calm     97 % 0 in /  0.0 mm
07:17 50.5 °F /  10.3 °C 49.6 °F /  9.8 °C 30.2 in /  1021.2 hPa Calm     97 % 0 in /  0.0 mm
07:22 50.7 °F /  10.4 °C 49.8 °F /  9.9 °C 30.2 in /  1021.2 hPa Calm     97 % 0 in /  0.0 mm
07:32 51.3 °F /  10.7 °C 50.4 °F /  10.2 °C 30.2 in /  1021.2 hPa Calm     97 % 0 in /  0.0 mm
07:42 51.4 °F /  10.8 °C 50.5 °F /  10.3 °C 30.2 in /  1021.6 hPa Calm     97 % 0.01 in /  0.3 mm
07:47 51.6 °F /  10.9 °C 50.7 °F /  10.4 °C 30.2 in /  1021.2 hPa Calm     97 % 0.01 in /  0.3 mm
07:52 51.6 °F /  10.9 °C 50.7 °F /  10.4 °C 30.2 in /  1021.2 hPa Calm     97 % 0.01 in /  0.3 mm
08:02 51.8 °F /  11.0 °C 50.9 °F /  10.5 °C 30.2 in /  1021.2 hPa Calm     97 % 0.01 in /  0.3 mm
08:12 51.8 °F /  11.0 °C 50.9 °F /  10.5 °C 30.2 in /  1021.2 hPa Calm     97 % 0.01 in /  0.3 mm
08:17 52 °F /  11.1 °C 51.1 °F /  10.6 °C 30.2 in /  1021.6 hPa SSW 1 mph /  1.6 km/h 1 mph /  1.6 km/h 97 % 0.01 in /  0.3 mm
08:22 52 °F /  11.1 °C 51.1 °F /  10.6 °C 30.2 in /  1021.6 hPa Calm   2 mph /  3.2 km/h 97 % 0.01 in /  0.3 mm
08:32 52.2 °F /  11.2 °C 51.3 °F /  10.7 °C 30.2 in /  1021.6 hPa SSW 1 mph /  1.6 km/h 2 mph /  3.2 km/h 97 % 0.01 in /  0.3 mm
08:42 52.3 °F /  11.3 °C 51.4 °F /  10.8 °C 30.2 in /  1021.6 hPa SSW 1 mph /  1.6 km/h 2 mph /  3.2 km/h 97 % 0 in /  0.0 mm
08:47 52.5 °F /  11.4 °C 51.6 °F /  10.9 °C 30.2 in /  1021.9 hPa Calm   2 mph /  3.2 km/h 97 % 0 in /  0.0 mm
09:02 52.7 °F /  11.5 °C 51.8 °F /  11.0 °C 30.2 in /  1021.9 hPa SSW 2 mph /  3.2 km/h 3 mph /  4.8 km/h 97 % 0 in /  0.0 mm
09:12 52.9 °F /  11.6 °C 52 °F /  11.1 °C 30.2 in /  1021.9 hPa Calm   2 mph /  3.2 km/h 97 % 0 in /  0.0 mm
09:17 52.9 °F /  11.6 °C 52 °F /  11.1 °C 30.2 in /  1021.9 hPa SSW 2 mph /  3.2 km/h 2 mph /  3.2 km/h 97 % 0 in /  0.0 mm
09:32 53.1 °F /  11.7 °C 52.2 °F /  11.2 °C 30.2 in /  1021.9 hPa SW 2 mph /  3.2 km/h 4 mph /  6.4 km/h 97 % 0 in /  0.0 mm
09:42 53.2 °F /  11.8 °C 52.3 °F /  11.3 °C 30.2 in /  1021.9 hPa SSW 1 mph /  1.6 km/h 4 mph /  6.4 km/h 97 % 0 in /  0.0 mm
09:47 53.4 °F /  11.9 °C 52.5 °F /  11.4 °C 30.2 in /  1021.9 hPa SSW 2 mph /  3.2 km/h 4 mph /  6.4 km/h 97 % 0 in /  0.0 mm
09:52 53.6 °F /  12.0 °C 52.7 °F /  11.5 °C 30.2 in /  1021.9 hPa SW 1 mph /  1.6 km/h 5 mph /  8.0 km/h 97 % 0 in /  0.0 mm
09:57 53.8 °F /  12.1 °C 52.9 °F /  11.6 °C 30.2 in /  1022.2 hPa SW 2 mph /  3.2 km/h 5 mph /  8.0 km/h 97 % 0 in /  0.0 mm
10:02 53.8 °F /  12.1 °C 52.9 °F /  11.6 °C 30.2 in /  1022.2 hPa SW 5 mph /  8.0 km/h 5 mph /  8.0 km/h 97 % 0 in /  0.0 mm
10:07 53.8 °F /  12.1 °C 52.9 °F /  11.6 °C 30.2 in /  1022.2 hPa SW 3 mph /  4.8 km/h 6 mph /  9.7 km/h 97 % 0 in /  0.0 mm
10:12 54 °F /  12.2 °C 53.1 °F /  11.7 °C 30.2 in /  1022.2 hPa SW 2 mph /  3.2 km/h 6 mph /  9.7 km/h 97 % 0 in /  0.0 mm
10:17 54.1 °F /  12.3 °C 53.2 °F /  11.8 °C 30.2 in /  1022.2 hPa SSW 2 mph /  3.2 km/h 6 mph /  9.7 km/h 97 % 0 in /  0.0 mm
10:22 54.1 °F /  12.3 °C 53.2 °F /  11.8 °C 30.2 in /  1022.2 hPa SW 3 mph /  4.8 km/h 6 mph /  9.7 km/h 97 % 0 in /  0.0 mm
10:27 54.3 °F /  12.4 °C 53.8 °F /  12.1 °C 30.2 in /  1022.2 hPa SSW 2 mph /  3.2 km/h 6 mph /  9.7 km/h 98 % 0 in /  0.0 mm
10:32 54.7 °F /  12.6 °C 54.1 °F /  12.3 °C 30.2 in /  1022.2 hPa SW 5 mph /  8.0 km/h 6 mph /  9.7 km/h 98 % 0 in /  0.0 mm
10:37 54.9 °F /  12.7 °C 54.3 °F /  12.4 °C 30.2 in /  1022.2 hPa SW 3 mph /  4.8 km/h 6 mph /  9.7 km/h 98 % 0 in /  0.0 mm
10:42 54.9 °F /  12.7 °C 54 °F /  12.2 °C 30.2 in /  1022.2 hPa South 5 mph /  8.0 km/h 6 mph /  9.7 km/h 97 % 0 in /  0.0 mm
10:52 55.2 °F /  12.9 °C 54.3 °F /  12.4 °C 30.2 in /  1022.2 hPa SW 5 mph /  8.0 km/h 7 mph /  11.3 km/h 97 % 0 in /  0.0 mm
10:57 55.2 °F /  12.9 °C 54.3 °F /  12.4 °C 30.2 in /  1022.2 hPa SW 3 mph /  4.8 km/h 7 mph /  11.3 km/h 97 % 0 in /  0.0 mm
11:02 55.2 °F /  12.9 °C 54.3 °F /  12.4 °C 30.2 in /  1022.2 hPa SW 3 mph /  4.8 km/h 7 mph /  11.3 km/h 97 % 0 in /  0.0 mm
11:07 55.4 °F /  13.0 °C 54.5 °F /  12.5 °C 30.2 in /  1022.2 hPa SW 2 mph /  3.2 km/h 7 mph /  11.3 km/h 97 % 0 in /  0.0 mm
11:22 56.1 °F /  13.4 °C 55.6 °F /  13.1 °C 30.2 in /  1022.2 hPa West 2 mph /  3.2 km/h 4 mph /  6.4 km/h 98 % 0 in /  0.0 mm
11:32 56.3 °F /  13.5 °C 55.4 °F /  13.0 °C 30.2 in /  1022.2 hPa West 6 mph /  9.7 km/h 6 mph /  9.7 km/h 97 % 0 in /  0.0 mm
11:37 56.5 °F /  13.6 °C 55.6 °F /  13.1 °C 30.2 in /  1022.2 hPa WSW 3 mph /  4.8 km/h 7 mph /  11.3 km/h 97 % 0 in /  0.0 mm
11:42 56.7 °F /  13.7 °C 55.8 °F /  13.2 °C 30.2 in /  1022.2 hPa Calm   7 mph /  11.3 km/h 97 % 0 in /  0.0 mm
11:47 57 °F /  13.9 °C 56.1 °F /  13.4 °C 30.2 in /  1022.2 hPa WSW 2 mph /  3.2 km/h 7 mph /  11.3 km/h 97 % 0 in /  0.0 mm
11:57 57.2 °F /  14.0 °C 56.3 °F /  13.5 °C 30.2 in /  1022.6 hPa SW 3 mph /  4.8 km/h 7 mph /  11.3 km/h 97 % 0 in /  0.0 mm
12:02 57.4 °F /  14.1 °C 56.5 °F /  13.6 °C 30.2 in /  1022.6 hPa WSW 6 mph /  9.7 km/h 7 mph /  11.3 km/h 97 % 0 in /  0.0 mm
12:12 57.7 °F /  14.3 °C 56.7 °F /  13.7 °C 30.2 in /  1022.6 hPa Calm   9 mph /  14.5 km/h 96 % 0 in /  0.0 mm
12:17 57.7 °F /  14.3 °C 56.3 °F /  13.5 °C 30.2 in /  1022.6 hPa SW 4 mph /  6.4 km/h 9 mph /  14.5 km/h 95 % 0 in /  0.0 mm
12:22 57.7 °F /  14.3 °C 56.3 °F /  13.5 °C 30.2 in /  1022.2 hPa South 2 mph /  3.2 km/h 7 mph /  11.3 km/h 95 % 0 in /  0.0 mm
12:32 58.3 °F /  14.6 °C 56.5 °F /  13.6 °C 30.2 in /  1022.2 hPa SW 3 mph /  4.8 km/h 7 mph /  11.3 km/h 94 % 0 in /  0.0 mm
12:42 58.8 °F /  14.9 °C 56.5 °F /  13.6 °C 30.2 in /  1022.2 hPa SW 7 mph /  11.3 km/h 7 mph /  11.3 km/h 92 % 0 in /  0.0 mm
12:52 59.2 °F /  15.1 °C 56.3 °F /  13.5 °C 30.2 in /  1022.6 hPa WNW 6 mph /  9.7 km/h 9 mph /  14.5 km/h 90 % 0 in /  0.0 mm
12:57 59.7 °F /  15.4 °C 56.8 °F /  13.8 °C 30.2 in /  1022.6 hPa SW 9 mph /  14.5 km/h 10 mph /  16.1 km/h 90 % 0 in /  0.0 mm
13:02 60.1 °F /  15.6 °C 56.5 °F /  13.6 °C 30.2 in /  1022.2 hPa SW 5 mph /  8.0 km/h 10 mph /  16.1 km/h 88 % 0 in /  0.0 mm
13:12 60.4 °F /  15.8 °C 56.5 °F /  13.6 °C 30.2 in /  1022.2 hPa WSW 5 mph /  8.0 km/h 9 mph /  14.5 km/h 87 % 0 in /  0.0 mm
13:17 60.3 °F /  15.7 °C 56.3 °F /  13.5 °C 30.2 in /  1022.2 hPa WNW 5 mph /  8.0 km/h 8 mph /  12.9 km/h 87 % 0 in /  0.0 mm
13:22 60.4 °F /  15.8 °C 56.5 °F /  13.6 °C 30.2 in /  1022.2 hPa West 4 mph /  6.4 km/h 8 mph /  12.9 km/h 87 % 0 in /  0.0 mm
13:27 60.4 °F /  15.8 °C 55.9 °F /  13.3 °C 30.2 in /  1022.2 hPa NW 3 mph /  4.8 km/h 8 mph /  12.9 km/h 85 % 0 in /  0.0 mm
13:32 61 °F /  16.1 °C 57 °F /  13.9 °C 30.2 in /  1022.2 hPa SW 3 mph /  4.8 km/h 8 mph /  12.9 km/h 87 % 0 in /  0.0 mm
13:37 61 °F /  16.1 °C 56.5 °F /  13.6 °C 30.2 in /  1022.2 hPa WSW 3 mph /  4.8 km/h 8 mph /  12.9 km/h 85 % 0 in /  0.0 mm
13:42 60.8 °F /  16.0 °C 56.7 °F /  13.7 °C 30.2 in /  1022.2 hPa SSW 5 mph /  8.0 km/h 10 mph /  16.1 km/h 86 % 0 in /  0.0 mm
13:47 61 °F /  16.1 °C 56.5 °F /  13.6 °C 30.2 in /  1022.2 hPa SSW 8 mph /  12.9 km/h 10 mph /  16.1 km/h 85 % 0 in /  0.0 mm
13:52 61 °F /  16.1 °C 56.5 °F /  13.6 °C 30.2 in /  1021.9 hPa SW 3 mph /  4.8 km/h 11 mph /  17.7 km/h 85 % 0 in /  0.0 mm
14:02 61.2 °F /  16.2 °C 56.3 °F /  13.5 °C 30.2 in /  1021.9 hPa WSW 7 mph /  11.3 km/h 11 mph /  17.7 km/h 84 % 0 in /  0.0 mm
14:07 61.3 °F /  16.3 °C 56.5 °F /  13.6 °C 30.2 in /  1021.9 hPa WNW 6 mph /  9.7 km/h 11 mph /  17.7 km/h 84 % 0 in /  0.0 mm
14:12 61.5 °F /  16.4 °C 56.7 °F /  13.7 °C 30.2 in /  1021.9 hPa WSW 7 mph /  11.3 km/h 11 mph /  17.7 km/h 84 % 0 in /  0.0 mm
14:17 61.3 °F /  16.3 °C 56.1 °F /  13.4 °C 30.2 in /  1021.9 hPa SW 8 mph /  12.9 km/h 11 mph /  17.7 km/h 83 % 0 in /  0.0 mm
14:22 61.2 °F /  16.2 °C 56.3 °F /  13.5 °C 30.2 in /  1021.9 hPa West 6 mph /  9.7 km/h 12 mph /  19.3 km/h 84 % 0 in /  0.0 mm
14:27 61.3 °F /  16.3 °C 56.8 °F /  13.8 °C 30.2 in /  1021.9 hPa SSW 6 mph /  9.7 km/h 12 mph /  19.3 km/h 85 % 0 in /  0.0 mm
14:32 61 °F /  16.1 °C 56.5 °F /  13.6 °C 30.2 in /  1021.9 hPa WSW 7 mph /  11.3 km/h 12 mph /  19.3 km/h 85 % 0 in /  0.0 mm
14:37 61 °F /  16.1 °C 56.5 °F /  13.6 °C 30.2 in /  1021.9 hPa SW 7 mph /  11.3 km/h 13 mph /  20.9 km/h 85 % 0 in /  0.0 mm
14:42 61.2 °F /  16.2 °C 56.3 °F /  13.5 °C 30.2 in /  1021.9 hPa WSW 7 mph /  11.3 km/h 13 mph /  20.9 km/h 84 % 0 in /  0.0 mm
14:47 61 °F /  16.1 °C 56.5 °F /  13.6 °C 30.2 in /  1021.9 hPa SSW 7 mph /  11.3 km/h 12 mph /  19.3 km/h 85 % 0 in /  0.0 mm
14:52 61 °F /  16.1 °C 56.5 °F /  13.6 °C 30.2 in /  1021.9 hPa SW 5 mph /  8.0 km/h 12 mph /  19.3 km/h 85 % 0 in /  0.0 mm
14:57 61.3 °F /  16.3 °C 57.2 °F /  14.0 °C 30.2 in /  1021.9 hPa WSW 6 mph /  9.7 km/h 12 mph /  19.3 km/h 86 % 0 in /  0.0 mm
15:02 61.5 °F /  16.4 °C 57 °F /  13.9 °C 30.2 in /  1021.9 hPa WSW 3 mph /  4.8 km/h 10 mph /  16.1 km/h 85 % 0 in /  0.0 mm
15:07 62.1 °F /  16.7 °C 57.6 °F /  14.2 °C 30.2 in /  1021.6 hPa SSW 5 mph /  8.0 km/h 10 mph /  16.1 km/h 85 % 0 in /  0.0 mm
15:12 62.6 °F /  17.0 °C 57 °F /  13.9 °C 30.2 in /  1021.6 hPa SW 4 mph /  6.4 km/h 10 mph /  16.1 km/h 82 % 0 in /  0.0 mm
15:17 62.4 °F /  16.9 °C 56.8 °F /  13.8 °C 30.2 in /  1021.6 hPa WSW 7 mph /  11.3 km/h 10 mph /  16.1 km/h 82 % 0 in /  0.0 mm
15:22 62.2 °F /  16.8 °C 56.3 °F /  13.5 °C 30.2 in /  1021.6 hPa West 6 mph /  9.7 km/h 13 mph /  20.9 km/h 81 % 0 in /  0.0 mm
15:27 62.4 °F /  16.9 °C 56.5 °F /  13.6 °C 30.2 in /  1021.6 hPa WNW 6 mph /  9.7 km/h 14 mph /  22.5 km/h 81 % 0 in /  0.0 mm
15:32 62.4 °F /  16.9 °C 56.1 °F /  13.4 °C 30.2 in /  1021.2 hPa SW 5 mph /  8.0 km/h 14 mph /  22.5 km/h 80 % 0 in /  0.0 mm
15:37 63 °F /  17.2 °C 56.7 °F /  13.7 °C 30.2 in /  1021.2 hPa SW 8 mph /  12.9 km/h 14 mph /  22.5 km/h 80 % 0 in /  0.0 mm
15:42 63.1 °F /  17.3 °C 56.5 °F /  13.6 °C 30.2 in /  1021.2 hPa WSW 11 mph /  17.7 km/h 15 mph /  24.1 km/h 79 % 0 in /  0.0 mm
15:47 63.5 °F /  17.5 °C 56.5 °F /  13.6 °C 30.2 in /  1021.2 hPa SSW 4 mph /  6.4 km/h 15 mph /  24.1 km/h 78 % 0 in /  0.0 mm
15:52 63.9 °F /  17.7 °C 56.8 °F /  13.8 °C 30.2 in /  1021.2 hPa SW 5 mph /  8.0 km/h 15 mph /  24.1 km/h 78 % 0 in /  0.0 mm
15:57 63.9 °F /  17.7 °C 56.5 °F /  13.6 °C 30.2 in /  1021.2 hPa West 11 mph /  17.7 km/h 13 mph /  20.9 km/h 77 % 0 in /  0.0 mm
16:02 63.3 °F /  17.4 °C 55.9 °F /  13.3 °C 30.2 in /  1021.6 hPa SW 5 mph /  8.0 km/h 13 mph /  20.9 km/h 77 % 0 in /  0.0 mm
16:07 63 °F /  17.2 °C 55.6 °F /  13.1 °C 30.2 in /  1021.2 hPa SW 5 mph /  8.0 km/h 13 mph /  20.9 km/h 77 % 0 in /  0.0 mm
16:12 62.8 °F /  17.1 °C 56.1 °F /  13.4 °C 30.2 in /  1021.2 hPa West 9 mph /  14.5 km/h 13 mph /  20.9 km/h 79 % 0 in /  0.0 mm
16:17 62.4 °F /  16.9 °C 55.8 °F /  13.2 °C 30.2 in /  1021.6 hPa WSW 2 mph /  3.2 km/h 14 mph /  22.5 km/h 79 % 0 in /  0.0 mm
16:22 62.2 °F /  16.8 °C 55.6 °F /  13.1 °C 30.2 in /  1021.6 hPa WSW 2 mph /  3.2 km/h 14 mph /  22.5 km/h 79 % 0 in /  0.0 mm
16:27 62.1 °F /  16.7 °C 55.8 °F /  13.2 °C 30.2 in /  1021.6 hPa West 8 mph /  12.9 km/h 14 mph /  22.5 km/h 80 % 0 in /  0.0 mm
16:32 61.5 °F /  16.4 °C 55.2 °F /  12.9 °C 30.2 in /  1021.6 hPa West 5 mph /  8.0 km/h 13 mph /  20.9 km/h 80 % 0 in /  0.0 mm
16:37 61.2 °F /  16.2 °C 55.2 °F /  12.9 °C 30.2 in /  1021.6 hPa West 6 mph /  9.7 km/h 13 mph /  20.9 km/h 81 % 0 in /  0.0 mm
16:42 61.2 °F /  16.2 °C 55.6 °F /  13.1 °C 30.2 in /  1021.6 hPa West 5 mph /  8.0 km/h 13 mph /  20.9 km/h 82 % 0 in /  0.0 mm
16:47 61 °F /  16.1 °C 55 °F /  12.8 °C 30.2 in /  1021.6 hPa SW 7 mph /  11.3 km/h 13 mph /  20.9 km/h 81 % 0 in /  0.0 mm
16:52 61 °F /  16.1 °C 55.4 °F /  13.0 °C 30.2 in /  1021.6 hPa WSW 2 mph /  3.2 km/h 11 mph /  17.7 km/h 82 % 0 in /  0.0 mm
16:57 60.8 °F /  16.0 °C 54.9 °F /  12.7 °C 30.2 in /  1021.6 hPa WNW 8 mph /  12.9 km/h 11 mph /  17.7 km/h 81 % 0 in /  0.0 mm
17:02 60.8 °F /  16.0 °C 55.2 °F /  12.9 °C 30.2 in /  1021.6 hPa West 4 mph /  6.4 km/h 10 mph /  16.1 km/h 82 % 0 in /  0.0 mm
17:07 60.6 °F /  15.9 °C 55 °F /  12.8 °C 30.2 in /  1021.6 hPa West 8 mph /  12.9 km/h 10 mph /  16.1 km/h 82 % 0 in /  0.0 mm
17:12 60.6 °F /  15.9 °C 55 °F /  12.8 °C 30.2 in /  1021.6 hPa NW 6 mph /  9.7 km/h 11 mph /  17.7 km/h 82 % 0 in /  0.0 mm
17:17 60.6 °F /  15.9 °C 55.4 °F /  13.0 °C 30.2 in /  1021.6 hPa West 3 mph /  4.8 km/h 11 mph /  17.7 km/h 83 % 0 in /  0.0 mm
17:22 60.8 °F /  16.0 °C 55.6 °F /  13.1 °C 30.2 in /  1021.6 hPa WNW 3 mph /  4.8 km/h 11 mph /  17.7 km/h 83 % 0 in /  0.0 mm
17:27 60.8 °F /  16.0 °C 55.6 °F /  13.1 °C 30.2 in /  1021.6 hPa WSW 3 mph /  4.8 km/h 10 mph /  16.1 km/h 83 % 0 in /  0.0 mm
17:32 60.8 °F /  16.0 °C 55.6 °F /  13.1 °C 30.2 in /  1021.6 hPa WSW 3 mph /  4.8 km/h 10 mph /  16.1 km/h 83 % 0 in /  0.0 mm
17:37 60.8 °F /  16.0 °C 55.6 °F /  13.1 °C 30.2 in /  1021.6 hPa SW 7 mph /  11.3 km/h 8 mph /  12.9 km/h 83 % 0 in /  0.0 mm
17:42 60.6 °F /  15.9 °C 55.4 °F /  13.0 °C 30.2 in /  1021.6 hPa WSW 3 mph /  4.8 km/h 7 mph /  11.3 km/h 83 % 0 in /  0.0 mm
17:47 60.6 °F /  15.9 °C 55.8 °F /  13.2 °C 30.2 in /  1021.6 hPa SW 4 mph /  6.4 km/h 7 mph /  11.3 km/h 84 % 0 in /  0.0 mm
17:52 60.6 °F /  15.9 °C 55.8 °F /  13.2 °C 30.2 in /  1021.6 hPa WSW 2 mph /  3.2 km/h 7 mph /  11.3 km/h 84 % 0 in /  0.0 mm
17:57 60.6 °F /  15.9 °C 55.8 °F /  13.2 °C 30.2 in /  1021.6 hPa WSW 1 mph /  1.6 km/h 7 mph /  11.3 km/h 84 % 0 in /  0.0 mm
18:02 60.6 °F /  15.9 °C 55.8 °F /  13.2 °C 30.2 in /  1021.6 hPa West 1 mph /  1.6 km/h 6 mph /  9.7 km/h 84 % 0 in /  0.0 mm
18:07 60.6 °F /  15.9 °C 55.8 °F /  13.2 °C 30.2 in /  1021.6 hPa WSW 1 mph /  1.6 km/h 5 mph /  8.0 km/h 84 % 0 in /  0.0 mm
18:12 60.6 °F /  15.9 °C 56.1 °F /  13.4 °C 30.2 in /  1021.6 hPa Calm   4 mph /  6.4 km/h 85 % 0 in /  0.0 mm
18:17 60.4 °F /  15.8 °C 55.9 °F /  13.3 °C 30.2 in /  1021.6 hPa SW 1 mph /  1.6 km/h 4 mph /  6.4 km/h 85 % 0 in /  0.0 mm
18:32 60.4 °F /  15.8 °C 55.9 °F /  13.3 °C 30.2 in /  1021.9 hPa West 1 mph /  1.6 km/h 3 mph /  4.8 km/h 85 % 0 in /  0.0 mm
18:37 60.4 °F /  15.8 °C 55.9 °F /  13.3 °C 30.2 in /  1021.9 hPa West 1 mph /  1.6 km/h 4 mph /  6.4 km/h 85 % 0 in /  0.0 mm
18:42 60.3 °F /  15.7 °C 55.8 °F /  13.2 °C 30.2 in /  1021.9 hPa Calm   4 mph /  6.4 km/h 85 % 0 in /  0.0 mm
18:47 60.3 °F /  15.7 °C 55.8 °F /  13.2 °C 30.2 in /  1021.9 hPa WNW 2 mph /  3.2 km/h 4 mph /  6.4 km/h 85 % 0 in /  0.0 mm
18:52 60.3 °F /  15.7 °C 55.4 °F /  13.0 °C 30.2 in /  1021.9 hPa West 1 mph /  1.6 km/h 5 mph /  8.0 km/h 84 % 0 in /  0.0 mm
18:57 60.1 °F /  15.6 °C 54.9 °F /  12.7 °C 30.2 in /  1021.9 hPa Calm   5 mph /  8.0 km/h 83 % 0 in /  0.0 mm
19:02 60.1 °F /  15.6 °C 55.2 °F /  12.9 °C 30.2 in /  1021.9 hPa Calm   5 mph /  8.0 km/h 84 % 0 in /  0.0 mm
19:07 60.1 °F /  15.6 °C 55.2 °F /  12.9 °C 30.2 in /  1021.9 hPa West 2 mph /  3.2 km/h 2 mph /  3.2 km/h 84 % 0 in /  0.0 mm
19:12 59.9 °F /  15.5 °C 55 °F /  12.8 °C 30.2 in /  1021.9 hPa West 2 mph /  3.2 km/h 2 mph /  3.2 km/h 84 % 0 in /  0.0 mm
19:17 59.7 °F /  15.4 °C 54.9 °F /  12.7 °C 30.2 in /  1021.9 hPa West 1 mph /  1.6 km/h 3 mph /  4.8 km/h 84 % 0 in /  0.0 mm
19:22 59.7 °F /  15.4 °C 54.9 °F /  12.7 °C 30.2 in /  1021.9 hPa WSW 1 mph /  1.6 km/h 3 mph /  4.8 km/h 84 % 0 in /  0.0 mm
19:27 59.7 °F /  15.4 °C 54.9 °F /  12.7 °C 30.2 in /  1022.2 hPa Calm   3 mph /  4.8 km/h 84 % 0 in /  0.0 mm
19:32 59.5 °F /  15.3 °C 54.7 °F /  12.6 °C 30.2 in /  1022.2 hPa Calm   3 mph /  4.8 km/h 84 % 0 in /  0.0 mm
19:37 59.5 °F /  15.3 °C 55 °F /  12.8 °C 30.2 in /  1022.2 hPa Calm   2 mph /  3.2 km/h 85 % 0 in /  0.0 mm
19:42 59.4 °F /  15.2 °C 54.9 °F /  12.7 °C 30.2 in /  1022.2 hPa Calm   1 mph /  1.6 km/h 85 % 0 in /  0.0 mm
19:47 59.4 °F /  15.2 °C 55.2 °F /  12.9 °C 30.2 in /  1022.2 hPa WSW 1 mph /  1.6 km/h 1 mph /  1.6 km/h 86 % 0 in /  0.0 mm
19:52 59.2 °F /  15.1 °C 55 °F /  12.8 °C 30.2 in /  1022.2 hPa Calm   2 mph /  3.2 km/h 86 % 0 in /  0.0 mm
19:57 59.2 °F /  15.1 °C 55 °F /  12.8 °C 30.2 in /  1022.2 hPa WNW 1 mph /  1.6 km/h 3 mph /  4.8 km/h 86 % 0 in /  0.0 mm
20:02 59 °F /  15.0 °C 54.9 °F /  12.7 °C 30.2 in /  1022.2 hPa West 2 mph /  3.2 km/h 4 mph /  6.4 km/h 86 % 0 in /  0.0 mm
20:07 58.8 °F /  14.9 °C 54.7 °F /  12.6 °C 30.2 in /  1022.2 hPa WNW 1 mph /  1.6 km/h 6 mph /  9.7 km/h 86 % 0 in /  0.0 mm
20:12 58.8 °F /  14.9 °C 54.7 °F /  12.6 °C 30.2 in /  1022.2 hPa West 2 mph /  3.2 km/h 6 mph /  9.7 km/h 86 % 0 in /  0.0 mm
20:17 58.6 °F /  14.8 °C 54.5 °F /  12.5 °C 30.2 in /  1022.2 hPa WNW 2 mph /  3.2 km/h 7 mph /  11.3 km/h 86 % 0 in /  0.0 mm
20:22 58.6 °F /  14.8 °C 54.5 °F /  12.5 °C 30.2 in /  1022.2 hPa NW 4 mph /  6.4 km/h 7 mph /  11.3 km/h 86 % 0 in /  0.0 mm
20:27 58.6 °F /  14.8 °C 54.5 °F /  12.5 °C 30.2 in /  1022.2 hPa WSW 2 mph /  3.2 km/h 10 mph /  16.1 km/h 86 % 0 in /  0.0 mm
20:32 58.6 °F /  14.8 °C 54.1 °F /  12.3 °C 30.2 in /  1022.2 hPa WNW 2 mph /  3.2 km/h 10 mph /  16.1 km/h 85 % 0 in /  0.0 mm
20:37 58.6 °F /  14.8 °C 54.5 °F /  12.5 °C 30.2 in /  1022.2 hPa WNW 3 mph /  4.8 km/h 10 mph /  16.1 km/h 86 % 0 in /  0.0 mm
20:42 58.6 °F /  14.8 °C 54.1 °F /  12.3 °C 30.2 in /  1022.2 hPa West 3 mph /  4.8 km/h 8 mph /  12.9 km/h 85 % 0 in /  0.0 mm
20:47 58.6 °F /  14.8 °C 54.1 °F /  12.3 °C 30.2 in /  1022.2 hPa Calm   6 mph /  9.7 km/h 85 % 0 in /  0.0 mm
20:52 58.6 °F /  14.8 °C 54.5 °F /  12.5 °C 30.2 in /  1022.2 hPa WSW 2 mph /  3.2 km/h 6 mph /  9.7 km/h 86 % 0 in /  0.0 mm
20:57 58.5 °F /  14.7 °C 54.3 °F /  12.4 °C 30.2 in /  1022.2 hPa WSW 1 mph /  1.6 km/h 4 mph /  6.4 km/h 86 % 0 in /  0.0 mm
21:02 58.5 °F /  14.7 °C 54.3 °F /  12.4 °C 30.2 in /  1022.2 hPa West 2 mph /  3.2 km/h 3 mph /  4.8 km/h 86 % 0 in /  0.0 mm
21:07 58.3 °F /  14.6 °C 54.1 °F /  12.3 °C 30.2 in /  1022.2 hPa Calm   3 mph /  4.8 km/h 86 % 0 in /  0.0 mm
21:12 58.3 °F /  14.6 °C 54.1 °F /  12.3 °C 30.2 in /  1022.2 hPa Calm   3 mph /  4.8 km/h 86 % 0 in /  0.0 mm
21:17 58.3 °F /  14.6 °C 54.5 °F /  12.5 °C 30.2 in /  1022.2 hPa Calm   2 mph /  3.2 km/h 87 % 0 in /  0.0 mm
21:22 58.1 °F /  14.5 °C 54.3 °F /  12.4 °C 30.2 in /  1022.2 hPa Calm   1 mph /  1.6 km/h 87 % 0 in /  0.0 mm
21:32 57.9 °F /  14.4 °C 54.1 °F /  12.3 °C 30.2 in /  1022.2 hPa Calm   1 mph /  1.6 km/h 87 % 0 in /  0.0 mm
21:42 57.9 °F /  14.4 °C 54.1 °F /  12.3 °C 30.2 in /  1022.2 hPa Calm   1 mph /  1.6 km/h 87 % 0 in /  0.0 mm
21:47 57.9 °F /  14.4 °C 54.1 °F /  12.3 °C 30.2 in /  1022.2 hPa Calm   1 mph /  1.6 km/h 87 % 0 in /  0.0 mm
21:52 57.7 °F /  14.3 °C 54 °F /  12.2 °C 30.2 in /  1022.2 hPa Calm     87 % 0 in /  0.0 mm
21:57 57.9 °F /  14.4 °C 54.1 °F /  12.3 °C 30.2 in /  1022.2 hPa Calm     87 % 0 in /  0.0 mm
22:02 57.9 °F /  14.4 °C 54.1 °F /  12.3 °C 30.2 in /  1022.6 hPa Calm     87 % 0 in /  0.0 mm
22:07 57.9 °F /  14.4 °C 54.1 °F /  12.3 °C 30.2 in /  1022.6 hPa West 1 mph /  1.6 km/h 1 mph /  1.6 km/h 87 % 0 in /  0.0 mm
22:12 57.7 °F /  14.3 °C 54.1 °F /  12.3 °C 30.2 in /  1022.6 hPa Calm   1 mph /  1.6 km/h 88 % 0 in /  0.0 mm
22:17 57.7 °F /  14.3 °C 54.1 °F /  12.3 °C 30.2 in /  1022.6 hPa Calm   1 mph /  1.6 km/h 88 % 0 in /  0.0 mm
22:22 57.7 °F /  14.3 °C 54.1 °F /  12.3 °C 30.2 in /  1022.6 hPa Calm   1 mph /  1.6 km/h 88 % 0 in /  0.0 mm
22:27 57.7 °F /  14.3 °C 54.1 °F /  12.3 °C 30.2 in /  1022.6 hPa Calm   1 mph /  1.6 km/h 88 % 0 in /  0.0 mm
22:32 57.6 °F /  14.2 °C 54 °F /  12.2 °C 30.2 in /  1022.6 hPa Calm     88 % 0 in /  0.0 mm
22:37 57.6 °F /  14.2 °C 54 °F /  12.2 °C 30.2 in /  1022.6 hPa Calm   1 mph /  1.6 km/h 88 % 0 in /  0.0 mm
22:42 57.6 °F /  14.2 °C 54 °F /  12.2 °C 30.2 in /  1022.6 hPa Calm   1 mph /  1.6 km/h 88 % 0 in /  0.0 mm
22:52 57.6 °F /  14.2 °C 54 °F /  12.2 °C 30.2 in /  1022.6 hPa Calm   1 mph /  1.6 km/h 88 % 0 in /  0.0 mm
22:57 57.4 °F /  14.1 °C 53.8 °F /  12.1 °C 30.2 in /  1022.6 hPa Calm     88 % 0 in /  0.0 mm
23:02 57.4 °F /  14.1 °C 54.1 °F /  12.3 °C 30.2 in /  1022.6 hPa Calm     89 % 0 in /  0.0 mm
23:07 57 °F /  13.9 °C 53.8 °F /  12.1 °C 30.2 in /  1022.6 hPa Calm     89 % 0 in /  0.0 mm
23:12 57 °F /  13.9 °C 54.1 °F /  12.3 °C 30.2 in /  1022.6 hPa Calm     90 % 0 in /  0.0 mm
23:17 56.8 °F /  13.8 °C 54 °F /  12.2 °C 30.2 in /  1022.6 hPa Calm     90 % 0 in /  0.0 mm
23:22 56.7 °F /  13.7 °C 54.1 °F /  12.3 °C 30.2 in /  1022.6 hPa Calm     91 % 0 in /  0.0 mm
23:27 56.7 °F /  13.7 °C 54.1 °F /  12.3 °C 30.2 in /  1022.6 hPa Calm     91 % 0 in /  0.0 mm
23:32 56.5 °F /  13.6 °C 54 °F /  12.2 °C 30.2 in /  1022.6 hPa Calm     91 % 0 in /  0.0 mm
23:37 56.5 °F /  13.6 °C 54 °F /  12.2 °C 30.2 in /  1022.6 hPa Calm     91 % 0 in /  0.0 mm
23:42 56.5 °F /  13.6 °C 54.1 °F /  12.3 °C 30.2 in /  1022.6 hPa Calm   1 mph /  1.6 km/h 92 % 0 in /  0.0 mm
23:47 56.3 °F /  13.5 °C 54 °F /  12.2 °C 30.2 in /  1022.6 hPa Calm   1 mph /  1.6 km/h 92 % 0 in /  0.0 mm
23:52 56.1 °F /  13.4 °C 53.8 °F /  12.1 °C 30.2 in /  1022.6 hPa Calm   1 mph /  1.6 km/h 92 % 0 in /  0.0 mm
23:57 56.1 °F /  13.4 °C 53.8 °F /  12.1 °C 30.2 in /  1022.6 hPa Calm     92 % 0 in /  0.0 mm
Meteo18
Compliments of Weather Underground - 4 mb

Script developed by  Jim McMurry - jmcmurry@mwt.net Adapted for the template by  Wim van der Kuil - Leuven-Template.eu

You find our weather info also at:

European Weather Network

Weather Underground

Equipment we use:

Weather-station
Davis Vue

Weather-program
Meteohub

Weather-server
Raspberry PI 2 B+

Provider
1 and 1

Davis Vue

Meteohub

Raspberry PI 2 B+

1 and 1